Fannin, Texas
Current Conditions -  °F | °C
As of 2:51 AM on Monday 20 Oct 2014 (Local Time) from KVCT Reporting Station
Haze Haze  
Wind Chill: 68°   Ceiling: Unl
Heat Index: 68°   Visibility: 4mi
Dew Point: 66°   Wind: 7mph
Humidity: 93%   Direction: 80°E
Pressure: 29.99"   Gusts: NA
Location:  28.7°N, 97.24°W
Report Text: KVCT 200751Z AUTO 08006KT 4SM BR CLR 20/19 A2999 RMK AO2 SLP154 T02000189
Loading
Personal Weather Stations






























Interactive Weather Map
Tropical Storm Tracking
New forecast layout! Learn more

10-Day Weather Forecast

Advertisements
Track Severe Weather on mobile